« Back
NWS Peachtree City, Ga » Text Product » AHN Terminal Aerodrome Forecast


Printer-friendly Version
Current Version              Previous Versions:   1  2  3  4  5  6  7  8  9  

Terminal Aerodrome Forecast

552
FTAK31 PAJN 221700
TAFAHN
TAF
PAHN 221723Z 2218/2318 31008KT P6SM -SHRA BKN035 OVC050
     FM222200 VRB05KT P6SM -SHRA BKN035 OVC040
     FM230000 VRB05KT P6SM VCSH BKN040 OVC045
     FM230400 31010KT P6SM SCT040 BKN060
      AMD LTD TO CLD VIS AND WIND=



USA.gov is the U.S. government's official web portal to all federal, state and local government web resources and services.